• Join FlightAware (Why Join?)
  • Login
  • US Flag 
09:38PM EST


 

Airport Tracker/Info


-or-


 

Live Flight TrackerFlight Track Log ✈ ASQ5520 ✈ 20-May-2013 ✈ KATL - KAGS

Flight Track Log - Related Links

Times and Time Zones

All times are in EDT time to prevent confusion due to time zone crossing. See the ASQ5520 flight status page for this flight to view local times or setup timezone preferences in your user account.

Time Position Orientation Groundspeed Altitude Reporting Facility
EDT Latitude Longitude Course Direction KTS MPH feet Rate Location/Type
11:31PM 33.6328 -84.4831 118° Southeast 364 419 2,600  Level Atlanta Center
11:32PM 33.6167 -84.5167 240° Southwest 217 250 2,900 1,800 Climbing Atlanta TRACON
11:33PM 33.5667 -84.5667 220° Southwest 270 311 5,400 2,280 Climbing Atlanta TRACON
11:34PM 33.5167 -84.5000 132° Southeast 280 322 7,800 2,040 Climbing Atlanta TRACON
11:35PM 33.5203 -84.3628 88° East 292 336 10,500 1,680 Climbing Atlanta Center
11:36PM 33.5228 -84.2581 88° East 301 346 12,000 1,500 Climbing Atlanta Center
11:37PM 33.6897 -83.9715 118° Southeast  Level FlightAware Approximate
11:37PM 33.5269 -84.1458 87° East 324 373 13,500  Level Atlanta Center
11:38PM 33.5333 -84.0289 86° East 342 394 14,900 1,200 Climbing Atlanta Center
11:39PM 33.5375 -83.9092 88° East 354 407 15,900 960 Climbing Atlanta Center
11:40PM 33.5414 -83.7822 88° East 372 428 16,900 900 Climbing Atlanta Center
11:41PM 33.5472 -83.6550 87° East 379 436 17,800 900 Climbing Atlanta Center
11:42PM 33.5575 -83.5403 84° East 385 443 18,700 600 Climbing Atlanta Center
11:43PM 33.5733 -83.4081 82° East 391 450 19,000 120 Climbing Atlanta Center
11:44PM 33.5894 -83.2708 82° East 397 457 19,000  Level Atlanta Center
11:45PM 33.6072 -83.1333 81° East 414 476 19,000 -600 Level Atlanta Center
11:46PM 33.6019 -82.9989 93° East 407 468 17,900 -1,740 Descending Atlanta Center
11:47PM 33.5717 -82.8769 107° East 389 448 15,600 -2,280 Descending Atlanta Center
11:48PM 33.5453 -82.7503 104° East 383 441 13,400 -2,220 Descending Atlanta Center
11:49PM 33.5147 -82.6236 106° East 372 428 11,200 -1,620 Descending Atlanta Center
11:50PM 33.4906 -82.5294 107° East 348 400 10,200 -1,260 Descending Atlanta Center
11:51PM 33.4708 -82.4400 105° East 308 354 8,700 -1,740 Descending Atlanta Center
11:52PM 33.4528 -82.3508 104° East 278 320 6,800 -1,740 Descending Atlanta Center
11:53PM 33.4328 -82.2614 105° East 278 320 5,300 -1,500 Descending Atlanta Center
11:54PM 33.4336 -82.1719 89° East 273 314 3,800 -1,500 Descending Atlanta Center
11:55PM 33.4447 -82.0869 81° East 268 308 2,400 -1,020 Descending Atlanta Center
11:56PM 33.4458 -82.0222 89° East 233 268 1,800 -600 Descending Atlanta Center
11:57PM 33.4222 -81.9806 124° Southeast 165 190 1,300 -540 Descending Atlanta Center